HorshamWeather.Com Historical Data
 
Daily Summary for October 25, 2014 Units:  English    Metric   Both
« Previous Day
Next Day »
Daily Weekly Monthly Yearly Custom
  Current: High: Low: Average:
Temperature: 66.8 °F 66.8 °F 40.6 °F 50.7 °F
Dew Point: 47.0 °F 47.7 °F 35.6 °F 40.4 °F
Humidity: 49% 84% 47% 69%
Wind Speed: 2.0mph 6.0mph 0.0mph 2mph
Wind Gust: 6.0mph 11.0mph - -
WindWest - - West
Pressure: 29.78 in 29.92 in 29.77 in -
Precipitation: 0.00 in      
Historical Graphs
 
 
Tabular Data for October 25, 2014
Time Temperature Dew Point Pressure Wind Wind Speed Wind Gust Humidity Rainfall Rate (Hourly)
00:00 49.2 °F 42.3 °F 29.89 in Calm     77% 0.00 in
00:05 49.1 °F 42.2 °F 29.89 in Calm     77% 0.00 in
00:10 49.0 °F 41.8 °F 29.89 in Calm     76% 0.00 in
00:15 48.9 °F 41.3 °F 29.89 in Calm     75% 0.00 in
00:20 48.8 °F 41.2 °F 29.89 in Calm     75% 0.00 in
00:25 48.7 °F 41.5 °F 29.89 in Calm     76% 0.00 in
00:30 48.5 °F 41.3 °F 29.89 in Calm     76% 0.00 in
00:35 48.3 °F 40.4 °F 29.89 in Calm   1.0 mph 74% 0.00 in
00:40 48.2 °F 40.0 °F 29.90 in Calm   1.0 mph 73% 0.00 in
00:45 48.2 °F 39.6 °F 29.90 in SSE 1.0 mph 1.0 mph 72% 0.00 in
00:50 48.2 °F 39.6 °F 29.90 in Calm     72% 0.00 in
00:55 48.3 °F 39.3 °F 29.90 in West 1.0 mph 1.0 mph 71% 0.00 in
01:00 48.3 °F 39.3 °F 29.90 in Calm   1.0 mph 71% 0.00 in
01:05 48.3 °F 39.3 °F 29.90 in Calm   1.0 mph 71% 0.00 in
01:10 48.2 °F 38.9 °F 29.90 in Calm     70% 0.00 in
01:15 48.2 °F 38.5 °F 29.90 in Calm     69% 0.00 in
01:20 48.1 °F 38.4 °F 29.90 in Calm     69% 0.00 in
01:25 48.1 °F 38.8 °F 29.90 in Calm     70% 0.00 in
01:30 48.0 °F 38.3 °F 29.90 in West 1.0 mph 1.0 mph 69% 0.00 in
01:35 48.0 °F 38.3 °F 29.90 in West 1.0 mph 2.0 mph 69% 0.00 in
01:40 48.0 °F 38.0 °F 29.90 in Calm   1.0 mph 68% 0.00 in
01:45 48.1 °F 38.0 °F 29.90 in West 2.0 mph 2.0 mph 68% 0.00 in
01:50 48.1 °F 37.7 °F 29.90 in NNW 2.0 mph 2.0 mph 67% 0.00 in
01:55 48.2 °F 37.8 °F 29.90 in Calm   1.0 mph 67% 0.00 in
02:00 48.3 °F 37.9 °F 29.90 in Calm   1.0 mph 67% 0.00 in
02:05 48.5 °F 38.1 °F 29.90 in Calm     67% 0.00 in
02:10 48.5 °F 38.1 °F 29.91 in Calm   2.0 mph 67% 0.00 in
02:15 48.5 °F 37.7 °F 29.91 in Calm   1.0 mph 66% 0.00 in
02:20 48.3 °F 37.9 °F 29.91 in Calm   1.0 mph 67% 0.00 in
02:25 48.2 °F 37.4 °F 29.91 in Calm     66% 0.00 in
02:30 48.0 °F 37.6 °F 29.91 in Calm   1.0 mph 67% 0.00 in
02:35 47.8 °F 37.4 °F 29.91 in Calm     67% 0.00 in
02:40 47.6 °F 37.6 °F 29.91 in Calm   1.0 mph 68% 0.00 in
02:45 47.4 °F 37.4 °F 29.91 in Calm   1.0 mph 68% 0.00 in
02:50 47.1 °F 36.7 °F 29.91 in Calm   1.0 mph 67% 0.00 in
02:55 46.9 °F 36.5 °F 29.91 in Calm   1.0 mph 67% 0.00 in
03:00 46.7 °F 36.7 °F 29.91 in Calm     68% 0.00 in
03:06 46.5 °F 36.5 °F 29.91 in Calm   1.0 mph 68% 0.00 in
03:11 46.3 °F 36.3 °F 29.90 in Calm   1.0 mph 68% 0.00 in
03:16 46.2 °F 37.0 °F 29.90 in Calm     70% 0.00 in
03:21 46.0 °F 36.4 °F 29.90 in Calm     69% 0.00 in
03:26 45.9 °F 36.7 °F 29.90 in Calm   1.0 mph 70% 0.00 in
03:31 45.7 °F 36.5 °F 29.90 in Calm     70% 0.00 in
03:36 45.6 °F 36.8 °F 29.91 in Calm     71% 0.00 in
03:41 45.3 °F 36.5 °F 29.91 in Calm     71% 0.00 in
03:46 45.1 °F 36.6 °F 29.91 in Calm   1.0 mph 72% 0.00 in
03:51 44.9 °F 36.8 °F 29.91 in WNW 1.0 mph 1.0 mph 73% 0.00 in
03:56 44.6 °F 36.5 °F 29.91 in Calm     73% 0.00 in
04:01 44.5 °F 36.7 °F 29.91 in Calm     74% 0.00 in
04:06 44.3 °F 36.5 °F 29.91 in Calm     74% 0.00 in
04:11 44.2 °F 36.5 °F 29.91 in Calm     74% 0.00 in
04:16 44.1 °F 36.0 °F 29.91 in Calm   1.0 mph 73% 0.00 in
04:21 44.1 °F 36.0 °F 29.91 in Calm   1.0 mph 73% 0.00 in
04:26 44.1 °F 36.0 °F 29.91 in Calm     73% 0.00 in
04:31 44.1 °F 36.0 °F 29.91 in WNW 1.0 mph 1.0 mph 73% 0.00 in
04:36 44.0 °F 35.9 °F 29.91 in Calm     73% 0.00 in
04:41 44.0 °F 35.6 °F 29.91 in Calm   1.0 mph 72% 0.00 in
04:46 44.0 °F 35.6 °F 29.91 in Calm     72% 0.00 in
04:51 44.0 °F 35.6 °F 29.91 in Calm     72% 0.00 in
04:56 44.0 °F 35.6 °F 29.91 in WNW 1.0 mph 1.0 mph 72% 0.00 in
05:01 44.0 °F 35.6 °F 29.91 in Calm   1.0 mph 72% 0.00 in
05:06 43.9 °F 35.8 °F 29.91 in Calm     73% 0.00 in
05:11 43.8 °F 35.7 °F 29.91 in Calm     73% 0.00 in
05:16 43.6 °F 35.9 °F 29.91 in Calm     74% 0.00 in
05:21 43.4 °F 36.0 °F 29.91 in Calm   1.0 mph 75% 0.00 in
05:26 43.2 °F 36.2 °F 29.91 in Calm     76% 0.00 in
05:31 43.1 °F 36.1 °F 29.91 in Calm     76% 0.00 in
05:36 42.9 °F 35.9 °F 29.91 in Calm     76% 0.00 in
05:41 42.7 °F 36.0 °F 29.91 in Calm     77% 0.00 in
05:46 42.5 °F 35.8 °F 29.91 in Calm     77% 0.00 in
05:51 42.3 °F 35.9 °F 29.91 in Calm     78% 0.00 in
05:56 42.2 °F 35.8 °F 29.91 in Calm     78% 0.00 in
06:01 42.0 °F 36.0 °F 29.91 in Calm     79% 0.00 in
06:06 41.9 °F 35.9 °F 29.91 in Calm     79% 0.00 in
06:11 41.8 °F 35.8 °F 29.91 in Calm     79% 0.00 in
06:16 41.8 °F 36.1 °F 29.91 in WNW 1.0 mph 1.0 mph 80% 0.00 in
06:21 41.7 °F 36.0 °F 29.91 in Calm   1.0 mph 80% 0.00 in
06:26 41.6 °F 36.2 °F 29.90 in Calm   1.0 mph 81% 0.00 in
06:31 41.4 °F 36.3 °F 29.90 in Calm   1.0 mph 82% 0.00 in
06:36 41.3 °F 36.2 °F 29.91 in Calm     82% 0.00 in
06:41 41.1 °F 36.0 °F 29.91 in Calm     82% 0.00 in
06:46 40.9 °F 36.1 °F 29.91 in Calm     83% 0.00 in
06:51 40.7 °F 36.2 °F 29.91 in Calm     84% 0.00 in
06:56 40.6 °F 36.2 °F 29.91 in Calm     84% 0.00 in
07:01 40.6 °F 35.8 °F 29.91 in Calm     83% 0.00 in
07:06 40.7 °F 36.2 °F 29.91 in Calm     84% 0.00 in
07:11 40.8 °F 36.0 °F 29.91 in Calm     83% 0.00 in
07:16 40.9 °F 36.1 °F 29.91 in Calm     83% 0.00 in
07:21 41.0 °F 35.9 °F 29.91 in Calm     82% 0.00 in
07:26 41.2 °F 36.4 °F 29.91 in Calm     83% 0.00 in
07:31 41.4 °F 36.3 °F 29.91 in Calm     82% 0.00 in
07:36 41.6 °F 36.5 °F 29.92 in Calm     82% 0.00 in
07:41 41.8 °F 36.7 °F 29.92 in Calm     82% 0.00 in
07:46 42.2 °F 37.1 °F 29.92 in Calm     82% 0.00 in
07:51 42.4 °F 37.3 °F 29.92 in Calm     82% 0.00 in
07:56 42.6 °F 37.2 °F 29.92 in Calm     81% 0.00 in
08:01 43.0 °F 37.6 °F 29.92 in Calm     81% 0.00 in
08:06 43.4 °F 38.0 °F 29.92 in Calm     81% 0.00 in
08:11 43.7 °F 38.3 °F 29.92 in West 1.0 mph 1.0 mph 81% 0.00 in
08:16 44.1 °F 38.3 °F 29.92 in West 1.0 mph 1.0 mph 80% 0.00 in
08:21 44.6 °F 38.8 °F 29.92 in Calm   1.0 mph 80% 0.00 in
08:26 45.1 °F 39.0 °F 29.92 in West 1.0 mph 1.0 mph 79% 0.00 in
08:31 45.5 °F 39.4 °F 29.92 in Calm     79% 0.00 in
08:36 45.8 °F 39.3 °F 29.92 in Calm     78% 0.00 in
08:41 46.1 °F 39.6 °F 29.92 in Calm     78% 0.00 in
08:46 46.6 °F 40.5 °F 29.91 in WSW 1.0 mph 1.0 mph 79% 0.00 in
08:51 47.0 °F 40.5 °F 29.91 in WSW 1.0 mph 2.0 mph 78% 0.00 in
08:56 47.5 °F 40.3 °F 29.91 in Calm   2.0 mph 76% 0.00 in
09:01 48.0 °F 40.8 °F 29.91 in SW 1.0 mph 1.0 mph 76% 0.00 in
09:06 48.5 °F 41.0 °F 29.91 in Calm   1.0 mph 75% 0.00 in
09:11 49.2 °F 41.3 °F 29.91 in SW 1.0 mph 1.0 mph 74% 0.00 in
09:16 49.7 °F 41.4 °F 29.91 in West 1.0 mph 3.0 mph 73% 0.00 in
09:21 50.3 °F 41.6 °F 29.91 in Calm   1.0 mph 72% 0.00 in
09:26 50.8 °F 42.5 °F 29.91 in West 2.0 mph 4.0 mph 73% 0.00 in
09:31 51.6 °F 42.5 °F 29.91 in WSW 2.0 mph 2.0 mph 71% 0.00 in
09:36 52.3 °F 42.5 °F 29.91 in West 1.0 mph 4.0 mph 69% 0.00 in
09:42 53.0 °F 43.1 °F 29.91 in WNW 1.0 mph 1.0 mph 69% 0.00 in
09:47 53.4 °F 42.7 °F 29.91 in East 2.0 mph 3.0 mph 67% 0.00 in
09:52 54.0 °F 42.9 °F 29.91 in WNW 1.0 mph 3.0 mph 66% 0.00 in
09:57 54.5 °F 43.4 °F 29.91 in Calm   2.0 mph 66% 0.00 in
10:02 54.9 °F 43.0 °F 29.91 in WSW 1.0 mph 4.0 mph 64% 0.00 in
10:07 55.3 °F 43.8 °F 29.91 in NW 3.0 mph 3.0 mph 65% 0.00 in
10:12 55.8 °F 43.8 °F 29.91 in WSW 3.0 mph 3.0 mph 64% 0.00 in
10:17 56.7 °F 43.8 °F 29.90 in Calm   2.0 mph 62% 0.00 in
10:22 57.7 °F 44.4 °F 29.91 in SE 1.0 mph 3.0 mph 61% 0.00 in
10:27 58.4 °F 44.1 °F 29.90 in SW 5.0 mph 6.0 mph 59% 0.00 in
10:32 58.4 °F 44.6 °F 29.90 in SSW 4.0 mph 5.0 mph 60% 0.00 in
10:37 58.2 °F 44.8 °F 29.90 in NNW 3.0 mph 3.0 mph 61% 0.00 in
10:42 58.4 °F 45.0 °F 29.90 in NNE 2.0 mph 4.0 mph 61% 0.00 in
10:47 58.8 °F 45.4 °F 29.89 in West 1.0 mph 6.0 mph 61% 0.00 in
10:52 59.2 °F 46.2 °F 29.89 in NW 3.0 mph 3.0 mph 62% 0.00 in
10:57 59.6 °F 45.3 °F 29.89 in West 1.0 mph 10.0 mph 59% 0.00 in
11:02 60.0 °F 46.5 °F 29.89 in Calm   3.0 mph 61% 0.00 in
11:07 60.3 °F 45.0 °F 29.88 in WNW 1.0 mph 7.0 mph 57% 0.00 in
11:12 60.5 °F 46.6 °F 29.88 in WNW 1.0 mph 3.0 mph 60% 0.00 in
11:17 60.7 °F 46.3 °F 29.87 in West 3.0 mph 6.0 mph 59% 0.00 in
11:22 61.1 °F 46.2 °F 29.87 in WNW 3.0 mph 6.0 mph 58% 0.00 in
11:27 61.5 °F 46.1 °F 29.87 in NW 1.0 mph 4.0 mph 57% 0.00 in
11:32 61.8 °F 46.4 °F 29.87 in SSW 4.0 mph 4.0 mph 57% 0.00 in
11:37 62.1 °F 46.7 °F 29.86 in WSW 2.0 mph 4.0 mph 57% 0.00 in
11:42 62.3 °F 46.9 °F 29.86 in Calm   2.0 mph 57% 0.00 in
11:47 62.6 °F 47.6 °F 29.86 in WNW 1.0 mph 3.0 mph 58% 0.00 in
11:52 63.0 °F 47.1 °F 29.86 in WNW 2.0 mph 7.0 mph 56% 0.00 in
11:57 63.4 °F 47.0 °F 29.86 in West 6.0 mph 6.0 mph 55% 0.00 in
12:02 63.6 °F 46.7 °F 29.85 in NW 1.0 mph 4.0 mph 54% 0.00 in
12:07 63.8 °F 46.8 °F 29.85 in Calm   8.0 mph 54% 0.00 in
12:12 63.8 °F 47.3 °F 29.85 in South 3.0 mph 7.0 mph 55% 0.00 in
12:17 63.9 °F 46.5 °F 29.85 in West 1.0 mph 6.0 mph 53% 0.00 in
12:22 64.1 °F 47.6 °F 29.84 in North 2.0 mph 3.0 mph 55% 0.00 in
12:27 64.4 °F 47.4 °F 29.84 in WNW 1.0 mph 9.0 mph 54% 0.00 in
12:32 64.6 °F 46.6 °F 29.83 in West 1.0 mph 4.0 mph 52% 0.00 in
12:37 64.9 °F 47.4 °F 29.83 in WSW 3.0 mph 7.0 mph 53% 0.00 in
12:42 65.0 °F 47.0 °F 29.82 in WSW 1.0 mph 4.0 mph 52% 0.00 in
12:47 65.3 °F 46.7 °F 29.82 in WSW 2.0 mph 4.0 mph 51% 0.00 in
12:52 65.3 °F 46.7 °F 29.81 in West 2.0 mph 5.0 mph 51% 0.00 in
12:57 65.4 °F 46.8 °F 29.81 in WNW 4.0 mph 8.0 mph 51% 0.00 in
13:02 65.6 °F 47.5 °F 29.80 in NE 5.0 mph 5.0 mph 52% 0.00 in
13:07 65.8 °F 47.2 °F 29.80 in WNW 4.0 mph 4.0 mph 51% 0.00 in
13:12 65.9 °F 47.3 °F 29.80 in WSW 1.0 mph 8.0 mph 51% 0.00 in
13:17 66.2 °F 47.6 °F 29.79 in Calm   8.0 mph 51% 0.00 in
13:22 66.3 °F 47.7 °F 29.79 in West 2.0 mph 4.0 mph 51% 0.00 in
13:27 66.4 °F 46.7 °F 29.79 in Calm   4.0 mph 49% 0.00 in
13:32 66.5 °F 47.3 °F 29.78 in WNW 4.0 mph 5.0 mph 50% 0.00 in
13:37 66.6 °F 46.9 °F 29.78 in NW 3.0 mph 11.0 mph 49% 0.00 in
13:42 66.6 °F 46.9 °F 29.78 in NNW 4.0 mph 7.0 mph 49% 0.00 in
13:47 66.7 °F 45.8 °F 29.77 in NW 2.0 mph 8.0 mph 47% 0.00 in
13:52 66.6 °F 46.3 °F 29.78 in NW 1.0 mph 9.0 mph 48% 0.00 in
13:57 66.6 °F 46.3 °F 29.78 in Calm   4.0 mph 48% 0.00 in
14:02 66.7 °F 47.0 °F 29.78 in WSW 3.0 mph 10.0 mph 49% 0.00 in
14:07 66.8 °F 47.0 °F 29.78 in West 2.0 mph 6.0 mph 49% 0.00 in
HorshamWeather.Com
Compliments of Weather Underground